createdAt,value
2023-04-02T00:01:19.300Z,99401.25
2023-04-02T00:04:26.514Z,99417.13
2023-04-02T00:07:33.669Z,99414.13
2023-04-02T00:10:39.635Z,99406.13
2023-04-02T00:13:44.569Z,99418.41
2023-04-02T00:16:46.492Z,99424.59
2023-04-02T00:19:58.696Z,99412.31
2023-04-02T00:23:00.887Z,99422.06
2023-04-02T00:26:02.900Z,99421.13
2023-04-02T00:29:05.587Z,99419.97
2023-04-02T00:32:09.835Z,99419.63
2023-04-02T00:35:19.617Z,99418.97
2023-04-02T00:38:23.319Z,99395.84
2023-04-02T00:41:27.379Z,99413.16
2023-04-02T00:44:29.282Z,99424.31
2023-04-02T00:47:32.014Z,99416.53
2023-04-02T00:50:34.900Z,99433.50
2023-04-02T00:53:36.821Z,99426.19
2023-04-02T00:56:48.921Z,99435.59
2023-04-02T01:00:03.132Z,99427.84
2023-04-02T01:03:16.501Z,99425.34
2023-04-02T01:06:18.976Z,99416.88
2023-04-02T01:09:30.472Z,99432.34
2023-04-02T01:12:35.531Z,99419.34
2023-04-02T01:15:38.856Z,99428.19
2023-04-02T01:18:56.741Z,99418.00
2023-04-02T01:22:01.479Z,99424.88
2023-04-02T01:25:05.075Z,99430.66
2023-04-02T01:28:08.496Z,99421.75
2023-04-02T01:31:10.727Z,99423.22
2023-04-02T01:34:14.200Z,99434.84
2023-04-02T01:37:44.964Z,99424.81
2023-04-02T01:40:52.233Z,99412.53
2023-04-02T01:43:56.011Z,99431.53
2023-04-02T01:47:00.827Z,99428.81
2023-04-02T01:50:05.623Z,99428.97
2023-04-02T01:53:09.312Z,99442.56
2023-04-02T01:56:11.288Z,99445.19
2023-04-02T01:59:13.478Z,99442.13
2023-04-02T02:02:15.463Z,99433.81
2023-04-02T02:05:18.731Z,99440.66
2023-04-02T02:08:31.836Z,99439.09
2023-04-02T02:11:33.812Z,99452.69
2023-04-02T02:14:35.794Z,99448.53
2023-04-02T02:17:38.196Z,99453.72
2023-04-02T02:20:40.351Z,99461.56
2023-04-02T02:23:42.233Z,99430.25
2023-04-02T02:26:44.165Z,99457.91
2023-04-02T02:29:46.000Z,99446.78
2023-04-02T02:33:08.727Z,99455.75
2023-04-02T02:36:23.436Z,99450.69
2023-04-02T02:39:26.039Z,99455.41
2023-04-02T02:42:32.377Z,99437.87
2023-04-02T02:45:36.070Z,99459.44
2023-04-02T02:48:38.431Z,99458.50
2023-04-02T02:51:42.839Z,99447.56
2023-04-02T02:54:47.269Z,99462.06
2023-04-02T02:57:52.555Z,99456.91
2023-04-02T03:00:54.425Z,99457.75
2023-04-02T03:03:56.579Z,99453.97
2023-04-02T03:06:58.531Z,99444.66
2023-04-02T03:10:12.672Z,99448.72
2023-04-02T03:13:14.475Z,99450.59
2023-04-02T03:16:16.357Z,99463.03
2023-04-02T03:19:27.581Z,99443.31
2023-04-02T03:22:32.149Z,99453.19
2023-04-02T03:25:41.829Z,99464.69
2023-04-02T03:28:44.226Z,99464.50
2023-04-02T03:31:50.572Z,99459.44
2023-04-02T03:34:56.791Z,99463.38
2023-04-02T03:38:06.543Z,99463.41
2023-04-02T03:41:21.034Z,99463.62
2023-04-02T03:44:33.123Z,99454.84
2023-04-02T03:47:55.373Z,99454.78
2023-04-02T03:51:01.050Z,99466.84
2023-04-02T03:54:03.100Z,99461.19
2023-04-02T03:57:05.715Z,99466.94
2023-04-02T04:00:37.244Z,99468.78
2023-04-02T04:03:43.006Z,99466.69
2023-04-02T04:06:45.387Z,99472.53
2023-04-02T04:09:47.492Z,99476.56
2023-04-02T04:12:49.310Z,99483.50
2023-04-02T04:16:10.495Z,99480.97
2023-04-02T04:19:18.159Z,99484.63
2023-04-02T04:22:30.584Z,99486.69
2023-04-02T04:25:37.335Z,99488.97
2023-04-02T04:29:00.175Z,99490.44
2023-04-02T04:32:11.076Z,99496.53
2023-04-02T04:35:15.793Z,99500.41
2023-04-02T04:38:22.174Z,99509.44
2023-04-02T04:41:25.072Z,99515.66
2023-04-02T04:44:50.402Z,99504.81
2023-04-02T04:47:55.110Z,99509.22
2023-04-02T04:51:01.036Z,99514.84
2023-04-02T04:54:02.909Z,99509.31
2023-04-02T04:57:04.770Z,99500.16
2023-04-02T05:00:13.015Z,99508.66
2023-04-02T05:03:25.973Z,99512.63
2023-04-02T05:06:30.827Z,99505.16
2023-04-02T05:09:35.040Z,99503.34
2023-04-02T05:12:51.530Z,99498.13
2023-04-02T05:16:14.740Z,99510.09
2023-04-02T05:19:29.808Z,99512.47
2023-04-02T05:22:35.300Z,99515.63
2023-04-02T05:25:37.324Z,99514.59
2023-04-02T05:28:45.513Z,99524.84
2023-04-02T05:32:10.711Z,99516.62
2023-04-02T05:35:19.199Z,99520.37
2023-04-02T05:38:22.605Z,99525.00
2023-04-02T05:41:27.118Z,99519.75
2023-04-02T05:44:32.928Z,99516.53
2023-04-02T05:47:40.883Z,99530.59
2023-04-02T05:50:43.940Z,99526.88
2023-04-02T05:53:50.776Z,99535.25
2023-04-02T05:56:55.244Z,99537.16
2023-04-02T05:59:57.842Z,99527.56
2023-04-02T06:03:01.129Z,99538.88
2023-04-02T06:06:04.322Z,99542.84
2023-04-02T06:09:08.763Z,99521.69
2023-04-02T06:12:12.771Z,99534.75
2023-04-02T06:15:15.605Z,99541.19
2023-04-02T06:18:22.259Z,99538.16
2023-04-02T06:21:24.209Z,99541.75
2023-04-02T06:24:26.067Z,99532.69
2023-04-02T06:27:28.074Z,99539.97
2023-04-02T06:30:33.983Z,99540.81
2023-04-02T06:33:36.530Z,99550.72
2023-04-02T06:36:38.419Z,99547.22
2023-04-02T06:39:40.583Z,99545.59
2023-04-02T06:42:42.558Z,99541.25
2023-04-02T06:45:44.470Z,99538.31
2023-04-02T06:48:46.482Z,99560.41
2023-04-02T06:51:48.370Z,99564.31
2023-04-02T06:54:50.384Z,99568.09
2023-04-02T06:57:52.359Z,99562.41
2023-04-02T07:00:54.328Z,99563.66
2023-04-02T07:03:56.538Z,99570.59
2023-04-02T07:06:58.507Z,99559.75
2023-04-02T07:10:00.471Z,99560.22
2023-04-02T07:13:02.607Z,99565.78
2023-04-02T07:16:04.807Z,99561.09
2023-04-02T07:19:07.079Z,99562.16
2023-04-02T07:22:09.079Z,99561.19
2023-04-02T07:25:11.005Z,99568.16
2023-04-02T07:28:14.163Z,99579.78
2023-04-02T07:31:17.780Z,99576.59
2023-04-02T07:34:19.942Z,99573.22
2023-04-02T07:37:21.809Z,99578.47
2023-04-02T07:40:24.376Z,99594.06
2023-04-02T07:43:26.540Z,99592.78
2023-04-02T07:46:30.816Z,99590.16
2023-04-02T07:49:32.868Z,99602.66
2023-04-02T07:52:40.444Z,99610.91
2023-04-02T07:55:42.781Z,99590.91
2023-04-02T07:58:44.713Z,99609.94
2023-04-02T08:01:46.651Z,99610.69
2023-04-02T08:04:51.861Z,99606.16
2023-04-02T08:07:54.833Z,99600.22
2023-04-02T08:10:56.791Z,99617.22
2023-04-02T08:13:58.811Z,99620.25
2023-04-02T08:17:01.083Z,99622.03
2023-04-02T08:20:04.249Z,99616.16
2023-04-02T08:23:13.548Z,99621.19
2023-04-02T08:26:18.923Z,99632.25
2023-04-02T08:29:21.314Z,99639.19
2023-04-02T08:32:24.170Z,99636.56
2023-04-02T08:35:26.569Z,99634.22
2023-04-02T08:38:28.834Z,99631.53
2023-04-02T08:41:32.442Z,99628.00
2023-04-02T08:44:53.175Z,99629.56
2023-04-02T08:47:56.266Z,99632.19
2023-04-02T08:50:58.993Z,99616.94
2023-04-02T08:54:08.969Z,99622.47
2023-04-02T08:57:11.255Z,99622.91
2023-04-02T09:00:31.679Z,99620.87
2023-04-02T09:03:39.010Z,99617.69
2023-04-02T09:06:41.216Z,99622.34
2023-04-02T09:09:43.296Z,99629.44
2023-04-02T09:12:47.213Z,99637.56
2023-04-02T09:15:49.341Z,99638.69
2023-04-02T09:18:51.624Z,99634.06
2023-04-02T09:21:57.059Z,99636.72
2023-04-02T09:25:00.856Z,99643.22
2023-04-02T09:28:04.254Z,99644.50
2023-04-02T09:31:12.608Z,99650.03
2023-04-02T09:34:28.779Z,99644.75
2023-04-02T09:37:30.654Z,99661.91
2023-04-02T09:40:33.898Z,99671.69
2023-04-02T09:43:36.961Z,99673.25
2023-04-02T09:46:46.941Z,99683.63
2023-04-02T09:49:49.162Z,99677.03
2023-04-02T09:52:51.425Z,99684.78
2023-04-02T09:56:12.347Z,99685.09
2023-04-02T09:59:18.001Z,99676.97
2023-04-02T10:02:27.466Z,99670.34
2023-04-02T10:05:40.047Z,99680.97
2023-04-02T10:08:44.071Z,99678.56
2023-04-02T10:11:46.959Z,99679.84
2023-04-02T10:14:49.348Z,99680.69
2023-04-02T10:17:55.880Z,99654.09
2023-04-02T10:20:57.924Z,99680.19
2023-04-02T10:23:59.932Z,99674.81
2023-04-02T10:27:09.869Z,99674.69
2023-04-02T10:30:12.368Z,99675.31
2023-04-02T10:33:53.137Z,99673.81
2023-04-02T10:36:55.582Z,99671.53
2023-04-02T10:40:01.334Z,99667.41
2023-04-02T10:43:23.564Z,99662.50
2023-04-02T10:46:54.939Z,99653.41
2023-04-02T10:50:03.613Z,99651.63
2023-04-02T10:53:15.186Z,99658.34
2023-04-02T10:56:17.431Z,99659.53
2023-04-02T10:59:30.455Z,99654.34
2023-04-02T11:02:34.779Z,99651.31
2023-04-02T11:05:44.487Z,99648.91
2023-04-02T11:08:47.164Z,99651.41
2023-04-02T11:11:49.592Z,99647.44
2023-04-02T11:14:51.852Z,99655.72
2023-04-02T11:17:54.662Z,99648.09
2023-04-02T11:20:58.506Z,99651.22
2023-04-02T11:24:01.265Z,99631.34
2023-04-02T11:27:14.739Z,99646.03
2023-04-02T11:30:18.130Z,99635.37
2023-04-02T11:33:42.050Z,99640.69
2023-04-02T11:36:55.260Z,99629.88
2023-04-02T11:39:59.291Z,99631.91
2023-04-02T11:43:21.293Z,99625.16
2023-04-02T11:46:29.576Z,99625.78
2023-04-02T11:49:39.874Z,99636.88
2023-04-02T11:52:45.123Z,99631.53
2023-04-02T11:55:48.187Z,99631.81
2023-04-02T11:58:50.101Z,99637.19
2023-04-02T12:01:54.757Z,99626.31
2023-04-02T12:04:56.736Z,99634.34
2023-04-02T12:08:25.032Z,99607.09
2023-04-02T12:11:33.535Z,99624.72
2023-04-02T12:14:38.446Z,99624.19
2023-04-02T12:17:40.411Z,99590.63
2023-04-02T12:20:47.310Z,99599.06
2023-04-02T12:23:49.545Z,99614.97
2023-04-02T12:27:15.552Z,99607.38
2023-04-02T12:30:18.728Z,99610.59
2023-04-02T12:33:21.064Z,99596.84
2023-04-02T12:36:23.696Z,99605.50
2023-04-02T12:39:28.122Z,99602.03
2023-04-02T12:42:37.221Z,99587.94
2023-04-02T12:45:39.130Z,99597.94
2023-04-02T12:48:41.092Z,99604.50
2023-04-02T12:51:43.102Z,99597.13
2023-04-02T12:54:54.206Z,99587.50
2023-04-02T12:57:56.868Z,99591.97
2023-04-02T13:01:14.282Z,99583.75
2023-04-02T13:04:16.616Z,99576.69
2023-04-02T13:07:19.251Z,99575.41
2023-04-02T13:10:23.542Z,99587.63
2023-04-02T13:13:27.968Z,99589.34
2023-04-02T13:16:33.931Z,99589.22
2023-04-02T13:19:36.054Z,99589.16
2023-04-02T13:22:37.902Z,99587.28
2023-04-02T13:25:39.842Z,99597.41
2023-04-02T13:28:41.770Z,99604.41
2023-04-02T13:31:43.880Z,99610.03
2023-04-02T13:34:45.879Z,99607.09
2023-04-02T13:37:47.972Z,99613.50
2023-04-02T13:40:49.839Z,99614.38
2023-04-02T13:43:52.146Z,99615.34
2023-04-02T13:46:54.895Z,99612.87
2023-04-02T13:49:56.764Z,99605.37
2023-04-02T13:52:59.229Z,99600.88
2023-04-02T13:56:01.907Z,99615.66
2023-04-02T13:59:04.171Z,99598.84
2023-04-02T14:02:24.837Z,99606.81
2023-04-02T14:05:39.076Z,99616.34
2023-04-02T14:08:44.057Z,99598.94
2023-04-02T14:12:01.411Z,99613.06
2023-04-02T14:15:22.184Z,99608.59
2023-04-02T14:18:30.654Z,99607.13
2023-04-02T14:21:32.557Z,99598.44
2023-04-02T14:24:38.401Z,99603.16
2023-04-02T14:27:43.093Z,99610.03
2023-04-02T14:30:54.068Z,99615.16
2023-04-02T14:33:55.939Z,99614.06
2023-04-02T14:37:00.763Z,99618.47
2023-04-02T14:40:09.011Z,99634.56
2023-04-02T14:43:12.310Z,99634.97
2023-04-02T14:46:14.265Z,99660.88
2023-04-02T14:49:19.218Z,99661.97
2023-04-02T14:52:21.682Z,99666.31
2023-04-02T14:55:26.931Z,99676.38
2023-04-02T14:58:33.723Z,99661.75
2023-04-02T15:01:37.393Z,99679.59
2023-04-02T15:04:43.418Z,99695.69
2023-04-02T15:07:47.349Z,99708.28
2023-04-02T15:10:55.119Z,99712.97
2023-04-02T15:14:06.246Z,99704.88
2023-04-02T15:17:10.830Z,99728.00
2023-04-02T15:20:14.016Z,99738.34
2023-04-02T15:23:23.326Z,99753.50
2023-04-02T15:26:26.468Z,99764.34
2023-04-02T15:29:37.725Z,99766.53
2023-04-02T15:32:40.132Z,99779.69
2023-04-02T15:35:47.313Z,99771.13
2023-04-02T15:38:50.952Z,99775.09
2023-04-02T15:42:22.698Z,99761.72
2023-04-02T15:45:27.967Z,99777.94
2023-04-02T15:48:33.180Z,99776.38
2023-04-02T15:52:05.477Z,99772.63
2023-04-02T15:55:10.700Z,99758.84
2023-04-02T15:58:16.216Z,99751.50
2023-04-02T16:01:23.099Z,99747.56
2023-04-02T16:04:43.939Z,99750.66
2023-04-02T16:08:21.869Z,99748.50
2023-04-02T16:11:24.062Z,99739.22
2023-04-02T16:14:32.200Z,99737.06
2023-04-02T16:17:36.642Z,99730.28
2023-04-02T16:20:40.021Z,99739.38
2023-04-02T16:23:42.554Z,99744.50
2023-04-02T16:26:44.473Z,99752.75
2023-04-02T16:30:05.134Z,99737.50
2023-04-02T16:33:13.029Z,99754.12
2023-04-02T16:36:24.208Z,99762.91
2023-04-02T16:39:29.187Z,99757.09
2023-04-02T16:42:36.473Z,99775.22
2023-04-02T16:45:47.844Z,99784.78
2023-04-02T16:48:51.548Z,99789.25
2023-04-02T16:52:00.422Z,99796.34
2023-04-02T16:55:15.592Z,99805.81
2023-04-02T16:58:32.936Z,99812.81
2023-04-02T17:01:38.548Z,99807.91
2023-04-02T17:04:59.004Z,99810.97
2023-04-02T17:08:19.517Z,99809.69
2023-04-02T17:11:25.092Z,99824.63
2023-04-02T17:14:28.497Z,99820.00
2023-04-02T17:17:31.609Z,99831.25
2023-04-02T17:20:33.615Z,99838.66
2023-04-02T17:23:56.392Z,99834.53
2023-04-02T17:27:17.647Z,99846.41
2023-04-02T17:30:22.011Z,99849.63
2023-04-02T17:33:26.932Z,99860.22
2023-04-02T17:36:35.355Z,99856.91
2023-04-02T17:39:42.004Z,99860.78
2023-04-02T17:42:47.029Z,99868.16
2023-04-02T17:45:52.977Z,99870.09
2023-04-02T17:48:58.490Z,99869.97
2023-04-02T17:52:01.276Z,99871.31
2023-04-02T17:55:18.313Z,99875.88
2023-04-02T17:58:26.445Z,99873.38
2023-04-02T18:01:34.746Z,99892.69
2023-04-02T18:04:55.670Z,99894.44
2023-04-02T18:08:03.824Z,99901.91
2023-04-02T18:11:24.536Z,99906.69
2023-04-02T18:14:35.736Z,99907.72
2023-04-02T18:17:40.936Z,99916.75
2023-04-02T18:20:48.176Z,99917.03
2023-04-02T18:23:56.297Z,99935.09
2023-04-02T18:27:06.101Z,99941.28
2023-04-02T18:30:34.154Z,99935.78
2023-04-02T18:33:40.934Z,99955.37
2023-04-02T18:36:42.972Z,99971.94
2023-04-02T18:39:53.847Z,99967.38
2023-04-02T18:42:58.952Z,99966.84
2023-04-02T18:46:19.578Z,99972.28
2023-04-02T18:49:29.254Z,99985.16
2023-04-02T18:52:31.372Z,99986.03
2023-04-02T18:55:33.335Z,99989.38
2023-04-02T18:58:42.821Z,99997.25
2023-04-02T19:01:46.546Z,99993.69
2023-04-02T19:05:13.637Z,100002.09
2023-04-02T19:08:15.512Z,100001.66
2023-04-02T19:11:18.552Z,99997.00
2023-04-02T19:14:21.353Z,100003.06
2023-04-02T19:17:26.265Z,100011.31
2023-04-02T19:20:50.407Z,100012.75
2023-04-02T19:23:58.476Z,100011.41
2023-04-02T19:27:00.559Z,100024.59
2023-04-02T19:30:20.643Z,100026.53
2023-04-02T19:33:33.822Z,100025.19
2023-04-02T19:36:41.017Z,100041.84
2023-04-02T19:40:03.234Z,100035.44
2023-04-02T19:43:06.484Z,100060.91
2023-04-02T19:46:08.433Z,100046.78
2023-04-02T19:49:13.322Z,100055.75
2023-04-02T19:52:15.497Z,100057.63
2023-04-02T19:55:17.404Z,100069.69
2023-04-02T19:58:25.488Z,100080.16
2023-04-02T20:01:27.496Z,100084.22
2023-04-02T20:04:29.356Z,100088.47
2023-04-02T20:07:31.575Z,100095.47
2023-04-02T20:10:33.442Z,100088.19
2023-04-02T20:13:35.490Z,100098.06
2023-04-02T20:16:38.708Z,100090.59
2023-04-02T20:19:40.805Z,100110.00
2023-04-02T20:22:42.673Z,100115.25
2023-04-02T20:25:45.684Z,100118.53
2023-04-02T20:28:47.564Z,100117.50
2023-04-02T20:31:49.429Z,100121.97
2023-04-02T20:34:51.371Z,100129.28
2023-04-02T20:37:53.533Z,100132.34
2023-04-02T20:40:55.613Z,100123.56
2023-04-02T20:43:57.620Z,100124.19
2023-04-02T20:46:59.527Z,100135.09
2023-04-02T20:50:01.632Z,100130.62
2023-04-02T20:53:03.507Z,100140.12
2023-04-02T20:56:10.134Z,100162.87
2023-04-02T20:59:12.064Z,100166.56
2023-04-02T21:02:13.929Z,100182.50
2023-04-02T21:05:16.086Z,100185.84
2023-04-02T21:08:18.367Z,100185.59
2023-04-02T21:11:21.987Z,100186.81
2023-04-02T21:14:24.120Z,100181.22
2023-04-02T21:17:26.134Z,100186.63
2023-04-02T21:20:28.074Z,100176.16
2023-04-02T21:23:30.360Z,100199.56
2023-04-02T21:26:34.810Z,100207.78
2023-04-02T21:29:36.920Z,100209.19
2023-04-02T21:32:38.825Z,100208.28
2023-04-02T21:35:40.832Z,100203.50
2023-04-02T21:38:46.675Z,100213.06
2023-04-02T21:41:51.984Z,100202.00
2023-04-02T21:44:53.919Z,100216.87
2023-04-02T21:47:55.880Z,100215.75
2023-04-02T21:51:04.872Z,100231.66
2023-04-02T21:54:06.769Z,100230.37
2023-04-02T21:57:08.813Z,100239.59
2023-04-02T22:00:12.436Z,100236.03
2023-04-02T22:03:24.945Z,100238.66
2023-04-02T22:06:31.779Z,100247.25
2023-04-02T22:09:33.690Z,100247.94
2023-04-02T22:12:35.524Z,100251.84
2023-04-02T22:15:37.429Z,100255.09
2023-04-02T22:18:39.409Z,100245.69
2023-04-02T22:21:41.683Z,100261.50
2023-04-02T22:24:43.566Z,100240.75
2023-04-02T22:27:45.433Z,100264.47
2023-04-02T22:30:47.441Z,100256.12
2023-04-02T22:33:50.392Z,100266.59
2023-04-02T22:36:53.073Z,100278.28
2023-04-02T22:39:55.371Z,100280.06
2023-04-02T22:42:57.231Z,100284.91
2023-04-02T22:45:59.241Z,100281.00
2023-04-02T22:49:01.081Z,100287.00
2023-04-02T22:52:05.831Z,100281.59
2023-04-02T22:55:08.327Z,100289.78
2023-04-02T22:58:10.242Z,100296.00
2023-04-02T23:01:12.306Z,100293.22
2023-04-02T23:04:14.219Z,100293.06
2023-04-02T23:07:16.303Z,100299.59
2023-04-02T23:10:18.207Z,100295.81
2023-04-02T23:13:20.540Z,100298.37
2023-04-02T23:16:23.023Z,100303.88
2023-04-02T23:19:25.227Z,100306.88
2023-04-02T23:22:27.164Z,100284.69
2023-04-02T23:25:29.077Z,100311.47
2023-04-02T23:28:31.181Z,100306.50
2023-04-02T23:31:33.062Z,100317.31
2023-04-02T23:34:35.070Z,100319.22
2023-04-02T23:37:36.931Z,100320.91
2023-04-02T23:40:38.857Z,100317.63
2023-04-02T23:43:40.920Z,100306.00
2023-04-02T23:46:42.871Z,100322.94
2023-04-02T23:49:47.889Z,100320.59
2023-04-02T23:52:50.219Z,100310.75
2023-04-02T23:55:52.104Z,100323.31
2023-04-02T23:58:53.970Z,100327.56
